sensor_id;sensor_type;location;lat;lon;timestamp;pressure;altitude;pressure_sealevel;temperature;humidity
56074;BME280;41950;55.840;37.442;2023-05-20T00:01:55;100692.03;;;11.40;52.16
56074;BME280;41950;55.840;37.442;2023-05-20T00:04:21;100657.47;;;11.18;52.18
56074;BME280;41950;55.840;37.442;2023-05-20T00:06:47;100681.63;;;11.40;52.56
56074;BME280;41950;55.840;37.442;2023-05-20T00:09:12;100674.69;;;11.37;52.65
56074;BME280;41950;55.840;37.442;2023-05-20T00:11:38;100667.78;;;11.33;52.83
56074;BME280;41950;55.840;37.442;2023-05-20T00:14:04;100655.72;;;11.20;53.13
56074;BME280;41950;55.840;37.442;2023-05-20T00:16:30;100675.66;;;11.17;53.40
56074;BME280;41950;55.840;37.442;2023-05-20T00:18:56;100663.56;;;11.06;54.02
56074;BME280;41950;55.840;37.442;2023-05-20T00:21:22;100655.81;;;11.02;54.59
56074;BME280;41950;55.840;37.442;2023-05-20T00:23:47;100667.06;;;11.04;54.89
56074;BME280;41950;55.840;37.442;2023-05-20T00:26:13;100670.53;;;10.98;55.04
56074;BME280;41950;55.840;37.442;2023-05-20T00:28:39;100629.91;;;10.74;55.12
56074;BME280;41950;55.840;37.442;2023-05-20T00:31:04;100669.69;;;10.96;55.28
56074;BME280;41950;55.840;37.442;2023-05-20T00:33:30;100648.06;;;10.83;55.52
56074;BME280;41950;55.840;37.442;2023-05-20T00:35:56;100644.56;;;10.89;55.32
56074;BME280;41950;55.840;37.442;2023-05-20T00:38:21;100653.22;;;10.97;55.44
56074;BME280;41950;55.840;37.442;2023-05-20T00:40:47;100661.00;;;10.99;55.35
56074;BME280;41950;55.840;37.442;2023-05-20T00:43:13;100664.47;;;10.98;55.96
56074;BME280;41950;55.840;37.442;2023-05-20T00:45:38;100639.44;;;10.77;56.13
56074;BME280;41950;55.840;37.442;2023-05-20T00:48:05;100665.34;;;10.92;56.52
56074;BME280;41950;55.840;37.442;2023-05-20T00:50:31;100674.88;;;10.98;56.43
56074;BME280;41950;55.840;37.442;2023-05-20T00:52:57;100668.81;;;10.96;56.81
56074;BME280;41950;55.840;37.442;2023-05-20T00:55:24;100656.69;;;10.89;56.59
56074;BME280;41950;55.840;37.442;2023-05-20T00:57:51;100675.72;;;11.01;56.84
56074;BME280;41950;55.840;37.442;2023-05-20T01:00:17;100643.72;;;10.86;56.57
56074;BME280;41950;55.840;37.442;2023-05-20T01:02:43;100658.41;;;10.94;56.88
56074;BME280;41950;55.840;37.442;2023-05-20T01:05:09;100654.97;;;10.88;57.13
56074;BME280;41950;55.840;37.442;2023-05-20T01:07:35;100666.22;;;10.96;57.01
56074;BME280;41950;55.840;37.442;2023-05-20T01:10:01;100654.97;;;10.89;57.05
56074;BME280;41950;55.840;37.442;2023-05-20T01:12:38;100656.69;;;10.89;57.04
56074;BME280;41950;55.840;37.442;2023-05-20T01:15:08;100671.41;;;10.90;57.43
56074;BME280;41950;55.840;37.442;2023-05-20T01:17:38;100654.16;;;10.76;57.63
56074;BME280;41950;55.840;37.442;2023-05-20T01:20:06;100657.63;;;10.69;58.02
56074;BME280;41950;55.840;37.442;2023-05-20T01:22:37;100669.72;;;10.73;58.40
56074;BME280;41950;55.840;37.442;2023-05-20T01:25:03;100671.44;;;10.80;58.54
56074;BME280;41950;55.840;37.442;2023-05-20T01:27:30;100658.47;;;10.74;58.27
56074;BME280;41950;55.840;37.442;2023-05-20T01:29:56;100657.63;;;10.69;58.32
56074;BME280;41950;55.840;37.442;2023-05-20T01:34:55;100666.28;;;10.68;58.63
56074;BME280;41950;55.840;37.442;2023-05-20T01:37:23;100683.59;;;10.72;58.91
56074;BME280;41950;55.840;37.442;2023-05-20T01:39:52;100679.25;;;10.73;59.07
56074;BME280;41950;55.840;37.442;2023-05-20T01:42:19;100680.13;;;10.70;58.98
56074;BME280;41950;55.840;37.442;2023-05-20T01:44:45;100696.53;;;10.80;58.66
56074;BME280;41950;55.840;37.442;2023-05-20T01:47:11;100670.59;;;10.63;59.22
56074;BME280;41950;55.840;37.442;2023-05-20T01:49:37;100687.03;;;10.73;59.51
56074;BME280;41950;55.840;37.442;2023-05-20T01:52:03;100695.72;;;10.72;59.29
56074;BME280;41950;55.840;37.442;2023-05-20T01:54:29;100632.59;;;10.27;59.53
56074;BME280;41950;55.840;37.442;2023-05-20T01:56:55;100654.22;;;10.43;59.93
56074;BME280;41950;55.840;37.442;2023-05-20T01:59:20;100685.31;;;10.63;60.11
56074;BME280;41950;55.840;37.442;2023-05-20T02:01:46;100686.19;;;10.54;60.48
56074;BME280;41950;55.840;37.442;2023-05-20T02:04:12;100696.59;;;10.54;60.47
56074;BME280;41950;55.840;37.442;2023-05-20T02:06:38;100655.94;;;10.26;60.96
56074;BME280;41950;55.840;37.442;2023-05-20T02:09:03;100665.44;;;10.36;60.81
56074;BME280;41950;55.840;37.442;2023-05-20T02:11:29;100680.13;;;10.38;60.79
56074;BME280;41950;55.840;37.442;2023-05-20T02:13:55;100653.34;;;10.30;61.13
56074;BME280;41950;55.840;37.442;2023-05-20T02:16:22;100684.47;;;10.48;61.06
56074;BME280;41950;55.840;37.442;2023-05-20T02:18:48;100675.81;;;10.39;61.50
56074;BME280;41950;55.840;37.442;2023-05-20T02:21:15;100691.41;;;10.48;61.41
56074;BME280;41950;55.840;37.442;2023-05-20T02:23:41;100680.16;;;10.44;61.47
56074;BME280;41950;55.840;37.442;2023-05-20T02:26:07;100657.66;;;10.33;61.83
56074;BME280;41950;55.840;37.442;2023-05-20T02:28:32;100668.06;;;10.42;61.63
56074;BME280;41950;55.840;37.442;2023-05-20T02:30:58;100682.75;;;10.49;61.85
56074;BME280;41950;55.840;37.442;2023-05-20T02:33:24;100676.69;;;10.45;62.11
56074;BME280;41950;55.840;37.442;2023-05-20T02:35:53;100675.84;;;10.45;62.35
56074;BME280;41950;55.840;37.442;2023-05-20T02:38:19;100675.84;;;10.46;62.13
56074;BME280;41950;55.840;37.442;2023-05-20T02:40:44;100694.00;;;10.52;62.39
56074;BME280;41950;55.840;37.442;2023-05-20T02:43:10;100671.50;;;10.45;62.50
56074;BME280;41950;55.840;37.442;2023-05-20T02:45:36;100691.38;;;10.60;62.43
56074;BME280;41950;55.840;37.442;2023-05-20T02:48:02;100687.94;;;10.52;62.93
56074;BME280;41950;55.840;37.442;2023-05-20T02:50:27;100666.31;;;10.41;63.27
56074;BME280;41950;55.840;37.442;2023-05-20T02:52:53;100681.88;;;10.50;62.88
56074;BME280;41950;55.840;37.442;2023-05-20T02:55:18;100686.19;;;10.52;63.31
56074;BME280;41950;55.840;37.442;2023-05-20T02:57:46;100681.03;;;10.48;63.35
56074;BME280;41950;55.840;37.442;2023-05-20T03:00:11;100693.13;;;10.50;63.68
56074;BME280;41950;55.840;37.442;2023-05-20T03:02:38;100693.13;;;10.46;63.95
56074;BME280;41950;55.840;37.442;2023-05-20T03:05:04;100651.63;;;10.28;64.11
56074;BME280;41950;55.840;37.442;2023-05-20T03:07:33;100674.97;;;10.43;63.69
56074;BME280;41950;55.840;37.442;2023-05-20T03:10:01;100674.13;;;10.41;64.19
56074;BME280;41950;55.840;37.442;2023-05-20T03:12:30;100669.78;;;10.41;64.44
56074;BME280;41950;55.840;37.442;2023-05-20T03:14:56;100628.28;;;10.26;63.81
56074;BME280;41950;55.840;37.442;2023-05-20T03:17:23;100664.56;;;10.60;63.51
56074;BME280;41950;55.840;37.442;2023-05-20T03:19:48;100693.06;;;10.87;63.46
56074;BME280;41950;55.840;37.442;2023-05-20T03:22:14;100699.97;;;11.00;62.97
56074;BME280;41950;55.840;37.442;2023-05-20T03:24:40;100701.69;;;11.01;63.00
56074;BME280;41950;55.840;37.442;2023-05-20T03:27:07;100679.19;;;10.94;63.07
56074;BME280;41950;55.840;37.442;2023-05-20T03:29:33;100690.47;;;10.86;63.14
56074;BME280;41950;55.840;37.442;2023-05-20T03:31:58;100700.84;;;10.89;63.39
56074;BME280;41950;55.840;37.442;2023-05-20T03:34:24;100704.31;;;10.91;63.63
56074;BME280;41950;55.840;37.442;2023-05-20T03:36:52;100686.97;;;10.94;63.21
56074;BME280;41950;55.840;37.442;2023-05-20T03:39:18;100675.75;;;10.88;63.33
56074;BME280;41950;55.840;37.442;2023-05-20T03:41:44;100672.28;;;10.89;63.42
56074;BME280;41950;55.840;37.442;2023-05-20T03:44:09;100697.34;;;11.09;63.13
56074;BME280;41950;55.840;37.442;2023-05-20T03:46:35;100694.69;;;11.17;62.76
56074;BME280;41950;55.840;37.442;2023-05-20T03:49:01;100668.75;;;11.08;62.76
56074;BME280;41950;55.840;37.442;2023-05-20T03:51:27;100692.94;;;11.28;62.95
56074;BME280;41950;55.840;37.442;2023-05-20T03:53:52;100698.13;;;11.30;62.87
56074;BME280;41950;55.840;37.442;2023-05-20T03:56:18;100698.13;;;11.33;63.04
56074;BME280;41950;55.840;37.442;2023-05-20T03:58:44;100688.59;;;11.33;62.60
56074;BME280;41950;55.840;37.442;2023-05-20T04:01:09;100695.53;;;11.31;62.91
56074;BME280;41950;55.840;37.442;2023-05-20T04:03:39;100693.78;;;11.36;62.64
56074;BME280;41950;55.840;37.442;2023-05-20T04:06:06;100671.31;;;11.17;62.85
56074;BME280;41950;55.840;37.442;2023-05-20T04:08:32;100699.91;;;11.25;62.79
56074;BME280;41950;55.840;37.442;2023-05-20T04:11:01;100707.63;;;11.37;63.06
56074;BME280;41950;55.840;37.442;2023-05-20T04:13:27;100681.75;;;11.08;63.40
56074;BME280;41950;55.840;37.442;2023-05-20T04:15:53;100694.69;;;11.28;63.55
56074;BME280;41950;55.840;37.442;2023-05-20T04:18:19;100684.28;;;11.29;62.89
56074;BME280;41950;55.840;37.442;2023-05-20T04:20:45;100680.78;;;11.33;62.98
56074;BME280;41950;55.840;37.442;2023-05-20T04:23:11;100686.88;;;11.32;62.91
56074;BME280;41950;55.840;37.442;2023-05-20T04:25:37;100694.56;;;11.49;62.87
56074;BME280;41950;55.840;37.442;2023-05-20T04:28:03;100677.28;;;11.42;62.65
56074;BME280;41950;55.840;37.442;2023-05-20T04:30:29;100688.44;;;11.65;62.54
56074;BME280;41950;55.840;37.442;2023-05-20T04:32:58;100705.75;;;11.68;62.23
56074;BME280;41950;55.840;37.442;2023-05-20T04:35:27;100686.72;;;11.63;62.64
56074;BME280;41950;55.840;37.442;2023-05-20T04:37:54;100691.88;;;11.66;62.34
56074;BME280;41950;55.840;37.442;2023-05-20T04:40:20;100697.03;;;11.75;62.39
56074;BME280;41950;55.840;37.442;2023-05-20T04:42:47;100689.22;;;11.83;61.77
56074;BME280;41950;55.840;37.442;2023-05-20T04:45:12;100683.16;;;11.82;62.18
56074;BME280;41950;55.840;37.442;2023-05-20T04:47:39;100696.03;;;11.99;61.99
56074;BME280;41950;55.840;37.442;2023-05-20T04:50:07;100690.78;;;12.10;61.71
56074;BME280;41950;55.840;37.442;2023-05-20T04:52:38;100676.00;;;12.15;61.03
56074;BME280;41950;55.840;37.442;2023-05-20T04:55:08;100699.34;;;12.24;60.87
56074;BME280;41950;55.840;37.442;2023-05-20T04:57:37;100703.78;;;12.13;61.10
56074;BME280;41950;55.840;37.442;2023-05-20T05:00:07;100703.78;;;12.10;61.41
56074;BME280;41950;55.840;37.442;2023-05-20T05:02:34;100706.34;;;12.17;61.45
56074;BME280;41950;55.840;37.442;2023-05-20T05:05:00;100682.00;;;12.23;61.10
56074;BME280;41950;55.840;37.442;2023-05-20T05:07:26;100684.50;;;12.32;60.86
56074;BME280;41950;55.840;37.442;2023-05-20T05:09:51;100653.41;;;12.20;60.46
56074;BME280;41950;55.840;37.442;2023-05-20T05:12:17;100675.84;;;12.31;60.33
56074;BME280;41950;55.840;37.442;2023-05-20T05:14:43;100686.09;;;12.50;60.19
56074;BME280;41950;55.840;37.442;2023-05-20T05:17:08;100699.00;;;12.65;59.78
56074;BME280;41950;55.840;37.442;2023-05-20T05:19:34;100662.78;;;12.37;60.00
56074;BME280;41950;55.840;37.442;2023-05-20T05:22:00;100687.97;;;12.37;60.19
56074;BME280;41950;55.840;37.442;2023-05-20T05:24:26;100672.44;;;12.25;60.53
56074;BME280;41950;55.840;37.442;2023-05-20T05:26:54;100692.34;;;12.29;60.70
56074;BME280;41950;55.840;37.442;2023-05-20T05:29:20;100667.28;;;12.20;60.92
56074;BME280;41950;55.840;37.442;2023-05-20T05:31:46;100660.47;;;12.05;60.80
56074;BME280;41950;55.840;37.442;2023-05-20T05:34:12;100683.63;;;12.36;60.47
56074;BME280;41950;55.840;37.442;2023-05-20T05:36:39;100683.41;;;12.62;60.75
56074;BME280;41950;55.840;37.442;2023-05-20T05:39:05;100670.13;;;12.85;59.65
56074;BME280;41950;55.840;37.442;2023-05-20T05:41:31;100665.56;;;13.04;59.27
56074;BME280;41950;55.840;37.442;2023-05-20T05:43:58;100679.47;;;13.04;58.07
56074;BME280;41950;55.840;37.442;2023-05-20T05:46:24;100684.00;;;12.90;58.80
56074;BME280;41950;55.840;37.442;2023-05-20T05:48:50;100667.50;;;12.86;59.08
56074;BME280;41950;55.840;37.442;2023-05-20T05:51:16;100667.59;;;12.79;58.48
56074;BME280;41950;55.840;37.442;2023-05-20T05:53:41;100686.53;;;12.94;58.83
56074;BME280;41950;55.840;37.442;2023-05-20T05:56:08;100670.81;;;13.00;58.48
56074;BME280;41950;55.840;37.442;2023-05-20T05:58:33;100666.31;;;13.18;57.79
56074;BME280;41950;55.840;37.442;2023-05-20T06:00:59;100666.50;;;12.99;58.35
56074;BME280;41950;55.840;37.442;2023-05-20T06:03:25;100677.59;;;13.14;58.02
56074;BME280;41950;55.840;37.442;2023-05-20T06:05:51;100678.66;;;12.99;58.01
56074;BME280;41950;55.840;37.442;2023-05-20T06:08:16;100696.84;;;13.04;58.41
56074;BME280;41950;55.840;37.442;2023-05-20T06:10:47;100672.56;;;13.00;58.43
56074;BME280;41950;55.840;37.442;2023-05-20T06:13:13;100686.22;;;13.23;58.56
56074;BME280;41950;55.840;37.442;2023-05-20T06:15:39;100663.59;;;13.27;58.04
56074;BME280;41950;55.840;37.442;2023-05-20T06:18:05;100669.44;;;13.46;57.76
56074;BME280;41950;55.840;37.442;2023-05-20T06:20:31;100681.19;;;13.77;57.46
56074;BME280;41950;55.840;37.442;2023-05-20T06:22:57;100627.75;;;13.41;56.15
56074;BME280;41950;55.840;37.442;2023-05-20T06:25:24;100692.63;;;13.66;56.68
56074;BME280;41950;55.840;37.442;2023-05-20T06:27:50;100669.41;;;13.49;56.38
56074;BME280;41950;55.840;37.442;2023-05-20T06:30:16;100661.84;;;13.27;56.38
56074;BME280;41950;55.840;37.442;2023-05-20T06:32:42;100687.66;;;13.49;56.50
56074;BME280;41950;55.840;37.442;2023-05-20T06:35:08;100672.69;;;13.61;56.51
56074;BME280;41950;55.840;37.442;2023-05-20T06:37:34;100654.44;;;13.61;56.47
56074;BME280;41950;55.840;37.442;2023-05-20T06:40:00;100677.03;;;13.63;55.44
56074;BME280;41950;55.840;37.442;2023-05-20T06:42:26;100651.28;;;13.37;55.55
56074;BME280;41950;55.840;37.442;2023-05-20T06:44:52;100657.47;;;13.29;55.46
56074;BME280;41950;55.840;37.442;2023-05-20T06:47:17;100678.16;;;13.42;55.40
56074;BME280;41950;55.840;37.442;2023-05-20T06:49:43;100652.31;;;13.26;55.88
56074;BME280;41950;55.840;37.442;2023-05-20T06:52:09;100675.47;;;13.51;54.67
56074;BME280;41950;55.840;37.442;2023-05-20T06:54:37;100685.63;;;13.68;54.89
56074;BME280;41950;55.840;37.442;2023-05-20T06:57:07;100675.00;;;13.83;54.45
56074;BME280;41950;55.840;37.442;2023-05-20T06:59:34;100673.91;;;13.99;54.54
56074;BME280;41950;55.840;37.442;2023-05-20T07:02:01;100673.50;;;14.22;53.47
56074;BME280;41950;55.840;37.442;2023-05-20T07:04:26;100655.75;;;14.45;52.08
56074;BME280;41950;55.840;37.442;2023-05-20T07:06:52;100657.25;;;14.59;50.07
56074;BME280;41950;55.840;37.442;2023-05-20T07:09:18;100663.53;;;14.47;48.48
56074;BME280;41950;55.840;37.442;2023-05-20T07:11:44;100642.88;;;14.33;48.77
56074;BME280;41950;55.840;37.442;2023-05-20T07:14:09;100643.69;;;14.37;48.13
56074;BME280;41950;55.840;37.442;2023-05-20T07:16:35;100657.47;;;14.46;47.03
56074;BME280;41950;55.840;37.442;2023-05-20T07:19:02;100668.84;;;14.41;47.22
56074;BME280;41950;55.840;37.442;2023-05-20T07:21:28;100662.75;;;14.43;46.66
56074;BME280;41950;55.840;37.442;2023-05-20T07:23:54;100646.50;;;14.25;46.51
56074;BME280;41950;55.840;37.442;2023-05-20T07:26:20;100657.50;;;14.43;46.19
56074;BME280;41950;55.840;37.442;2023-05-20T07:28:46;100631.41;;;14.40;45.24
56074;BME280;41950;55.840;37.442;2023-05-20T07:31:12;100656.13;;;14.72;44.30
56074;BME280;41950;55.840;37.442;2023-05-20T07:33:38;100639.88;;;14.58;43.98
56074;BME280;41950;55.840;37.442;2023-05-20T07:36:04;100651.84;;;14.68;44.05
56074;BME280;41950;55.840;37.442;2023-05-20T07:38:30;100673.97;;;14.96;43.70
56074;BME280;41950;55.840;37.442;2023-05-20T07:40:57;100646.16;;;14.92;43.61
56074;BME280;41950;55.840;37.442;2023-05-20T07:43:22;100668.56;;;15.04;43.68
56074;BME280;41950;55.840;37.442;2023-05-20T07:45:48;100672.34;;;15.32;44.21
56074;BME280;41950;55.840;37.442;2023-05-20T07:48:14;100671.97;;;15.51;42.32
56074;BME280;41950;55.840;37.442;2023-05-20T07:50:40;100658.69;;;15.20;42.44
56074;BME280;41950;55.840;37.442;2023-05-20T07:53:06;100657.00;;;15.17;42.32
56074;BME280;41950;55.840;37.442;2023-05-20T07:55:35;100657.84;;;15.18;42.74
56074;BME280;41950;55.840;37.442;2023-05-20T07:58:03;100668.50;;;15.08;42.85
56074;BME280;41950;55.840;37.442;2023-05-20T08:00:29;100647.88;;;14.93;43.57
56074;BME280;41950;55.840;37.442;2023-05-20T08:02:55;100649.31;;;15.09;43.66
56074;BME280;41950;55.840;37.442;2023-05-20T08:05:21;100660.91;;;15.38;43.47
56074;BME280;41950;55.840;37.442;2023-05-20T08:07:47;100659.00;;;15.46;43.69
56074;BME280;41950;55.840;37.442;2023-05-20T08:10:13;100641.31;;;15.17;42.68
56074;BME280;41950;55.840;37.442;2023-05-20T08:12:39;100657.84;;;15.18;43.09
56074;BME280;41950;55.840;37.442;2023-05-20T08:15:05;100659.25;;;15.34;42.57
56074;BME280;41950;55.840;37.442;2023-05-20T08:17:32;100657.88;;;15.56;42.77
56074;BME280;41950;55.840;37.442;2023-05-20T08:19:58;100633.59;;;15.51;42.90
56074;BME280;41950;55.840;37.442;2023-05-20T08:22:23;100630.91;;;15.54;42.46
56074;BME280;41950;55.840;37.442;2023-05-20T08:24:50;100661.41;;;15.55;42.54
56074;BME280;41950;55.840;37.442;2023-05-20T08:27:15;100657.84;;;15.59;42.91
56074;BME280;41950;55.840;37.442;2023-05-20T08:29:43;100652.53;;;15.64;43.00
56074;BME280;41950;55.840;37.442;2023-05-20T08:32:09;100608.69;;;15.35;43.21
56074;BME280;41950;55.840;37.442;2023-05-20T08:34:35;100635.97;;;15.63;42.00
56074;BME280;41950;55.840;37.442;2023-05-20T08:37:01;100630.19;;;15.48;42.91
56074;BME280;41950;55.840;37.442;2023-05-20T08:39:27;100634.00;;;15.73;42.84
56074;BME280;41950;55.840;37.442;2023-05-20T08:41:53;100645.66;;;15.97;42.80
56074;BME280;41950;55.840;37.442;2023-05-20T08:44:20;100661.50;;;16.26;42.32
56074;BME280;41950;55.840;37.442;2023-05-20T08:46:46;100656.19;;;16.29;42.84
56074;BME280;41950;55.840;37.442;2023-05-20T08:49:12;100624.72;;;15.97;41.66
56074;BME280;41950;55.840;37.442;2023-05-20T08:51:38;100590.44;;;15.70;41.18
56074;BME280;41950;55.840;37.442;2023-05-20T08:54:05;100645.84;;;15.88;41.32
56074;BME280;41950;55.840;37.442;2023-05-20T08:56:33;100668.41;;;15.95;41.32
56074;BME280;41950;55.840;37.442;2023-05-20T08:59:00;100652.84;;;15.89;41.77
56074;BME280;41950;55.840;37.442;2023-05-20T09:01:26;100666.28;;;16.09;40.56
56074;BME280;41950;55.840;37.442;2023-05-20T09:03:52;100640.94;;;16.11;39.29
56074;BME280;41950;55.840;37.442;2023-05-20T09:06:18;100653.03;;;16.51;38.84
56074;BME280;41950;55.840;37.442;2023-05-20T09:08:45;100636.97;;;16.63;39.03
56074;BME280;41950;55.840;37.442;2023-05-20T09:11:12;100656.59;;;16.82;39.81
56074;BME280;41950;55.840;37.442;2023-05-20T09:13:38;100637.69;;;16.71;40.46
56074;BME280;41950;55.840;37.442;2023-05-20T09:16:03;100640.34;;;16.68;40.74
56074;BME280;41950;55.840;37.442;2023-05-20T09:18:31;100666.50;;;16.71;40.82
56074;BME280;41950;55.840;37.442;2023-05-20T09:20:57;100656.97;;;16.67;40.71
56074;BME280;41950;55.840;37.442;2023-05-20T09:23:23;100625.34;;;16.41;40.76
56074;BME280;41950;55.840;37.442;2023-05-20T09:25:52;100658.97;;;16.57;40.69
56074;BME280;41950;55.840;37.442;2023-05-20T09:28:23;100652.72;;;16.29;40.91
56074;BME280;41950;55.840;37.442;2023-05-20T09:30:49;100638.44;;;16.06;41.39
56074;BME280;41950;55.840;37.442;2023-05-20T09:33:16;100651.63;;;16.37;40.76
56074;BME280;41950;55.840;37.442;2023-05-20T09:35:42;100643.94;;;16.64;39.75
56074;BME280;41950;55.840;37.442;2023-05-20T09:38:10;100640.66;;;16.56;39.71
56074;BME280;41950;55.840;37.442;2023-05-20T09:40:36;100663.00;;;16.72;39.70
56074;BME280;41950;55.840;37.442;2023-05-20T09:43:07;100664.00;;;16.65;40.35
56074;BME280;41950;55.840;37.442;2023-05-20T09:45:33;100667.97;;;16.81;40.75
56074;BME280;41950;55.840;37.442;2023-05-20T09:48:00;100584.34;;;16.72;41.79
56074;BME280;41950;55.840;37.442;2023-05-20T09:50:27;100657.59;;;17.39;40.86
56074;BME280;41950;55.840;37.442;2023-05-20T09:52:54;100672.88;;;17.24;40.84
56074;BME280;41950;55.840;37.442;2023-05-20T09:55:22;100683.63;;;16.84;41.74
56074;BME280;41950;55.840;37.442;2023-05-20T09:57:49;100652.38;;;16.41;43.00
56074;BME280;41950;55.840;37.442;2023-05-20T10:00:15;100678.00;;;16.30;42.46
56074;BME280;41950;55.840;37.442;2023-05-20T10:02:49;100679.03;;;15.89;42.57
56074;BME280;41950;55.840;37.442;2023-05-20T10:05:29;100666.78;;;15.49;43.26
56074;BME280;41950;55.840;37.442;2023-05-20T10:19:12;100669.22;;;15.58;42.35
56074;BME280;41950;55.840;37.442;2023-05-20T10:21:42;100683.81;;;15.70;42.83
56074;BME280;41950;55.840;37.442;2023-05-20T10:24:09;100638.50;;;15.68;42.06
56074;BME280;41950;55.840;37.442;2023-05-20T10:26:36;100674.31;;;16.03;42.53
56074;BME280;41950;55.840;37.442;2023-05-20T10:29:16;100646.66;;;15.91;41.00
56074;BME280;41950;55.840;37.442;2023-05-20T10:31:49;100684.34;;;16.21;40.55
56074;BME280;41950;55.840;37.442;2023-05-20T10:34:16;100685.75;;;16.34;40.36
56074;BME280;41950;55.840;37.442;2023-05-20T10:36:56;100691.59;;;16.46;39.70
56074;BME280;41950;55.840;37.442;2023-05-20T10:39:31;100675.81;;;16.49;39.67
56074;BME280;41950;55.840;37.442;2023-05-20T10:42:07;100678.84;;;16.66;40.52
56074;BME280;41950;55.840;37.442;2023-05-20T10:44:43;100680.31;;;16.78;40.95
56074;BME280;41950;55.840;37.442;2023-05-20T10:47:10;100662.56;;;16.87;40.15
56074;BME280;41950;55.840;37.442;2023-05-20T10:49:40;100679.88;;;16.93;39.56
56074;BME280;41950;55.840;37.442;2023-05-20T10:52:09;100663.69;;;16.79;39.91
56074;BME280;41950;55.840;37.442;2023-05-20T10:54:36;100661.88;;;16.81;40.22
56074;BME280;41950;55.840;37.442;2023-05-20T10:57:06;100671.88;;;16.97;41.38
56074;BME280;41950;55.840;37.442;2023-05-20T10:59:34;100670.28;;;16.92;40.83
56074;BME280;41950;55.840;37.442;2023-05-20T11:02:00;100679.91;;;16.91;41.56
56074;BME280;41950;55.840;37.442;2023-05-20T11:04:28;100667.34;;;16.73;41.97
56074;BME280;41950;55.840;37.442;2023-05-20T11:06:54;100673.09;;;16.86;41.63
56074;BME280;41950;55.840;37.442;2023-05-20T11:09:23;100674.41;;;17.02;41.69
56074;BME280;41950;55.840;37.442;2023-05-20T11:11:51;100673.44;;;17.05;40.63
56074;BME280;41950;55.840;37.442;2023-05-20T11:14:17;100645.53;;;16.71;41.23
56074;BME280;41950;55.840;37.442;2023-05-20T11:16:45;100657.00;;;16.65;41.14
56074;BME280;41950;55.840;37.442;2023-05-20T11:19:15;100668.41;;;16.30;41.38
56074;BME280;41950;55.840;37.442;2023-05-20T11:21:42;100689.34;;;15.95;42.62
56074;BME280;41950;55.840;37.442;2023-05-20T11:24:08;100676.06;;;15.65;43.59
56074;BME280;41950;55.840;37.442;2023-05-20T11:26:34;100694.47;;;15.58;43.41
56074;BME280;41950;55.840;37.442;2023-05-20T11:29:01;100699.16;;;15.43;42.67
56074;BME280;41950;55.840;37.442;2023-05-20T11:31:26;100714.03;;;15.41;42.90
56074;BME280;41950;55.840;37.442;2023-05-20T11:33:52;100707.25;;;15.31;42.40
56074;BME280;41950;55.840;37.442;2023-05-20T11:36:18;100688.28;;;15.22;42.16
56074;BME280;41950;55.840;37.442;2023-05-20T11:38:45;100693.72;;;15.11;42.35
56074;BME280;41950;55.840;37.442;2023-05-20T11:41:12;100715.28;;;15.22;42.83
56074;BME280;41950;55.840;37.442;2023-05-20T11:43:37;100688.47;;;15.12;42.51
56074;BME280;41950;55.840;37.442;2023-05-20T11:46:04;100700.22;;;15.33;42.44
56074;BME280;41950;55.840;37.442;2023-05-20T11:48:30;100644.81;;;15.16;42.04
56074;BME280;41950;55.840;37.442;2023-05-20T11:50:56;100664.28;;;15.43;41.52
56074;BME280;41950;55.840;37.442;2023-05-20T11:53:22;100666.81;;;15.48;40.43
56074;BME280;41950;55.840;37.442;2023-05-20T11:55:55;100688.94;;;15.74;40.93
56074;BME280;41950;55.840;37.442;2023-05-20T11:58:22;100682.38;;;15.94;40.11
56074;BME280;41950;55.840;37.442;2023-05-20T12:00:48;100690.47;;;16.20;39.98
56074;BME280;41950;55.840;37.442;2023-05-20T12:03:15;100667.72;;;16.22;39.78
56074;BME280;41950;55.840;37.442;2023-05-20T12:05:42;100686.38;;;16.46;39.64
56074;BME280;41950;55.840;37.442;2023-05-20T12:08:08;100662.81;;;16.43;38.69
56074;BME280;41950;55.840;37.442;2023-05-20T12:10:34;100684.09;;;16.66;39.57
56074;BME280;41950;55.840;37.442;2023-05-20T12:13:01;100667.53;;;16.64;38.84
56074;BME280;41950;55.840;37.442;2023-05-20T12:15:28;100673.38;;;16.75;39.09
56074;BME280;41950;55.840;37.442;2023-05-20T12:17:54;100673.53;;;16.69;38.84
56074;BME280;41950;55.840;37.442;2023-05-20T12:20:22;100687.84;;;16.56;39.34
56074;BME280;41950;55.840;37.442;2023-05-20T12:22:48;100691.22;;;16.59;39.65
56074;BME280;41950;55.840;37.442;2023-05-20T12:25:19;100689.63;;;16.54;39.43
56074;BME280;41950;55.840;37.442;2023-05-20T12:27:46;100682.03;;;16.43;40.05
56074;BME280;41950;55.840;37.442;2023-05-20T12:30:15;100688.69;;;16.56;40.15
56074;BME280;41950;55.840;37.442;2023-05-20T12:32:41;100672.84;;;16.61;39.90
56074;BME280;41950;55.840;37.442;2023-05-20T12:35:08;100688.03;;;16.82;40.15
56074;BME280;41950;55.840;37.442;2023-05-20T12:37:35;100661.41;;;16.63;40.50
56074;BME280;41950;55.840;37.442;2023-05-20T12:40:01;100688.34;;;16.72;41.01
56074;BME280;41950;55.840;37.442;2023-05-20T12:42:36;100681.41;;;16.33;41.70
56074;BME280;41950;55.840;37.442;2023-05-20T12:45:02;100673.06;;;16.19;42.04
56074;BME280;41950;55.840;37.442;2023-05-20T12:47:31;100693.34;;;16.10;42.50
56074;BME280;41950;55.840;37.442;2023-05-20T12:49:57;100645.94;;;15.44;43.36
56074;BME280;41950;55.840;37.442;2023-05-20T12:52:24;100667.53;;;15.54;43.64